sensor_id;sensor_type;location;lat;lon;timestamp;pressure;altitude;pressure_sealevel;temperature;humidity
5691;BME280;2870;42.680;23.364;2022-11-11T00:01:34;96304.09;;;8.12;97.44
5691;BME280;2870;42.680;23.364;2022-11-11T00:04:02;96304.34;;;8.08;97.94
5691;BME280;2870;42.680;23.364;2022-11-11T00:06:28;96306.88;;;8.12;97.66
5691;BME280;2870;42.680;23.364;2022-11-11T00:08:55;96302.81;;;8.13;97.65
5691;BME280;2870;42.680;23.364;2022-11-11T00:11:25;96300.75;;;8.19;97.44
5691;BME280;2870;42.680;23.364;2022-11-11T00:13:52;96305.88;;;8.04;97.54
5691;BME280;2870;42.680;23.364;2022-11-11T00:16:19;96297.84;;;7.83;97.68
5691;BME280;2870;42.680;23.364;2022-11-11T00:18:46;96293.00;;;7.84;97.93
5691;BME280;2870;42.680;23.364;2022-11-11T00:21:31;96299.34;;;7.90;97.77
5691;BME280;2870;42.680;23.364;2022-11-11T00:24:28;96302.59;;;8.00;97.00
5691;BME280;2870;42.680;23.364;2022-11-11T00:27:14;96299.31;;;7.95;97.69
5691;BME280;2870;42.680;23.364;2022-11-11T00:29:45;96302.56;;;8.05;97.55
5691;BME280;2870;42.680;23.364;2022-11-11T00:32:12;96304.31;;;8.14;97.00
5691;BME280;2870;42.680;23.364;2022-11-11T00:34:54;96307.88;;;8.14;97.08
5691;BME280;2870;42.680;23.364;2022-11-11T00:37:39;96308.06;;;8.22;96.58
5691;BME280;2870;42.680;23.364;2022-11-11T00:40:07;96310.84;;;8.28;96.40
5691;BME280;2870;42.680;23.364;2022-11-11T00:42:36;96304.31;;;8.14;96.58
5691;BME280;2870;42.680;23.364;2022-11-11T00:45:04;96304.31;;;8.14;97.84
5691;BME280;2870;42.680;23.364;2022-11-11T00:47:32;96306.09;;;8.17;97.69
5691;BME280;2870;42.680;23.364;2022-11-11T00:50:19;96304.75;;;8.29;97.70
5691;BME280;2870;42.680;23.364;2022-11-11T00:53:08;96296.47;;;8.07;97.26
5691;BME280;2870;42.680;23.364;2022-11-11T00:55:35;96296.72;;;8.09;97.02
5691;BME280;2870;42.680;23.364;2022-11-11T00:58:04;96301.03;;;8.10;97.18
5691;BME280;2870;42.680;23.364;2022-11-11T01:00:31;96300.25;;;8.15;97.37
5691;BME280;2870;42.680;23.364;2022-11-11T01:02:58;96295.16;;;8.19;97.47
5691;BME280;2870;42.680;23.364;2022-11-11T01:05:25;96291.56;;;8.24;97.40
5691;BME280;2870;42.680;23.364;2022-11-11T01:07:52;96307.28;;;8.27;97.58
5691;BME280;2870;42.680;23.364;2022-11-11T01:10:20;96297.41;;;8.20;97.36
5691;BME280;2870;42.680;23.364;2022-11-11T01:13:01;96294.03;;;8.33;97.46
5691;BME280;2870;42.680;23.364;2022-11-11T01:15:39;96291.56;;;8.24;97.57
5691;BME280;2870;42.680;23.364;2022-11-11T01:18:07;96290.59;;;8.10;97.18
5691;BME280;2870;42.680;23.364;2022-11-11T01:20:35;96293.16;;;8.08;97.39
5691;BME280;2870;42.680;23.364;2022-11-11T01:23:03;96289.63;;;8.02;97.61
5691;BME280;2870;42.680;23.364;2022-11-11T01:25:32;96285.03;;;8.05;97.81
5691;BME280;2870;42.680;23.364;2022-11-11T01:28:00;96297.00;;;8.00;97.89
5691;BME280;2870;42.680;23.364;2022-11-11T01:30:27;96294.22;;;7.94;98.06
5691;BME280;2870;42.680;23.364;2022-11-11T01:32:55;96295.22;;;8.02;98.17
5691;BME280;2870;42.680;23.364;2022-11-11T01:35:21;96290.38;;;8.03;97.76
5691;BME280;2870;42.680;23.364;2022-11-11T01:37:48;96292.47;;;7.91;97.92
5691;BME280;2870;42.680;23.364;2022-11-11T01:40:15;96288.66;;;7.88;97.66
5691;BME280;2870;42.680;23.364;2022-11-11T01:42:47;96281.34;;;7.80;97.87
5691;BME280;2870;42.680;23.364;2022-11-11T01:45:46;96283.91;;;7.78;97.99
5691;BME280;2870;42.680;23.364;2022-11-11T01:48:18;96286.72;;;7.72;98.18
5691;BME280;2870;42.680;23.364;2022-11-11T01:51:04;96290.00;;;7.70;97.95
5691;BME280;2870;42.680;23.364;2022-11-11T01:53:32;96297.88;;;7.72;97.60
5691;BME280;2870;42.680;23.364;2022-11-11T01:56:01;96293.53;;;7.71;97.74
5691;BME280;2870;42.680;23.364;2022-11-11T01:58:28;96298.88;;;7.69;97.99
5691;BME280;2870;42.680;23.364;2022-11-11T02:00:57;96295.84;;;7.67;97.84
5691;BME280;2870;42.680;23.364;2022-11-11T02:03:27;96292.81;;;7.65;98.10
5691;BME280;2870;42.680;23.364;2022-11-11T02:05:56;96294.81;;;7.70;98.14
5691;BME280;2870;42.680;23.364;2022-11-11T02:08:25;96298.84;;;7.80;97.98
5691;BME280;2870;42.680;23.364;2022-11-11T02:11:02;96297.88;;;7.72;97.66
5691;BME280;2870;42.680;23.364;2022-11-11T02:13:30;96307.78;;;7.73;97.70
5691;BME280;2870;42.680;23.364;2022-11-11T02:16:15;96310.56;;;7.79;97.75
5691;BME280;2870;42.680;23.364;2022-11-11T02:18:43;96311.47;;;8.04;97.30
5691;BME280;2870;42.680;23.364;2022-11-11T02:21:13;96306.63;;;8.10;96.62
5691;BME280;2870;42.680;23.364;2022-11-11T02:23:51;96311.97;;;8.08;96.08
5691;BME280;2870;42.680;23.364;2022-11-11T02:26:19;96311.97;;;8.08;95.25
5691;BME280;2870;42.680;23.364;2022-11-11T02:28:49;96312.25;;;7.93;94.96
5691;BME280;2870;42.680;23.364;2022-11-11T02:31:18;96302.19;;;7.73;95.25
5691;BME280;2870;42.680;23.364;2022-11-11T02:33:44;96306.50;;;7.74;94.52
5691;BME280;2870;42.680;23.364;2022-11-11T02:36:14;96307.81;;;7.56;94.94
5691;BME280;2870;42.680;23.364;2022-11-11T02:38:42;96313.44;;;7.39;95.82
5691;BME280;2870;42.680;23.364;2022-11-11T02:41:10;96317.00;;;7.23;96.69
5691;BME280;2870;42.680;23.364;2022-11-11T02:43:55;96315.25;;;6.86;97.25
5691;BME280;2870;42.680;23.364;2022-11-11T02:46:21;96309.63;;;6.98;97.98
5691;BME280;2870;42.680;23.364;2022-11-11T02:48:48;96316.75;;;6.99;98.19
5691;BME280;2870;42.680;23.364;2022-11-11T02:51:15;96315.72;;;6.90;98.65
5691;BME280;2870;42.680;23.364;2022-11-11T02:53:42;96327.41;;;7.06;98.45
5691;BME280;2870;42.680;23.364;2022-11-11T02:56:10;96320.03;;;7.20;97.64
5691;BME280;2870;42.680;23.364;2022-11-11T02:58:57;96320.03;;;6.97;97.87
5691;BME280;2870;42.680;23.364;2022-11-11T03:01:24;96321.81;;;7.06;97.35
5691;BME280;2870;42.680;23.364;2022-11-11T03:03:51;96328.41;;;6.91;97.97
5691;BME280;2870;42.680;23.364;2022-11-11T03:06:17;96323.34;;;6.90;98.46
5691;BME280;2870;42.680;23.364;2022-11-11T03:08:44;96319.78;;;7.01;98.03
5691;BME280;2870;42.680;23.364;2022-11-11T03:11:12;96320.31;;;6.94;97.98
5691;BME280;2870;42.680;23.364;2022-11-11T03:13:39;96318.50;;;6.85;98.98
5691;BME280;2870;42.680;23.364;2022-11-11T03:16:06;96319.28;;;6.85;100.00
5691;BME280;2870;42.680;23.364;2022-11-11T03:18:53;96325.59;;;6.75;98.67
5691;BME280;2870;42.680;23.364;2022-11-11T03:21:19;96314.44;;;6.63;99.74
5691;BME280;2870;42.680;23.364;2022-11-11T03:23:46;96315.69;;;6.57;99.99
5691;BME280;2870;42.680;23.364;2022-11-11T03:26:14;96315.69;;;6.57;100.00
5691;BME280;2870;42.680;23.364;2022-11-11T03:28:41;96322.78;;;6.47;100.00
5691;BME280;2870;42.680;23.364;2022-11-11T03:31:08;96319.72;;;6.39;100.00
5691;BME280;2870;42.680;23.364;2022-11-11T03:33:34;96307.81;;;6.44;100.00
5691;BME280;2870;42.680;23.364;2022-11-11T03:36:01;96314.16;;;6.45;100.00
5691;BME280;2870;42.680;23.364;2022-11-11T03:38:28;96308.09;;;6.63;100.00
5691;BME280;2870;42.680;23.364;2022-11-11T03:40:55;96307.09;;;6.60;99.74
5691;BME280;2870;42.680;23.364;2022-11-11T03:43:25;96315.22;;;6.75;99.83
5691;BME280;2870;42.680;23.364;2022-11-11T03:45:53;96314.44;;;6.69;99.76
5691;BME280;2870;42.680;23.364;2022-11-11T03:48:21;96318.03;;;6.75;100.00
5691;BME280;2870;42.680;23.364;2022-11-11T03:50:49;96314.19;;;6.78;100.00
5691;BME280;2870;42.680;23.364;2022-11-11T03:53:18;96311.94;;;6.88;100.00
5691;BME280;2870;42.680;23.364;2022-11-11T03:55:45;96311.94;;;6.99;99.93
5691;BME280;2870;42.680;23.364;2022-11-11T03:58:13;96318.28;;;7.11;99.21
5691;BME280;2870;42.680;23.364;2022-11-11T04:00:41;96323.84;;;7.16;98.95
5691;BME280;2870;42.680;23.364;2022-11-11T04:03:10;96315.72;;;7.07;99.34
5691;BME280;2870;42.680;23.364;2022-11-11T04:05:54;96312.94;;;7.30;98.86
5691;BME280;2870;42.680;23.364;2022-11-11T04:08:44;96299.44;;;7.56;98.76
5691;BME280;2870;42.680;23.364;2022-11-11T04:11:30;96313.41;;;7.56;97.98
5691;BME280;2870;42.680;23.364;2022-11-11T04:14:02;96309.59;;;7.54;98.15
5691;BME280;2870;42.680;23.364;2022-11-11T04:16:48;96305.75;;;7.68;97.87
5691;BME280;2870;42.680;23.364;2022-11-11T04:19:15;96313.56;;;7.81;98.09
5691;BME280;2870;42.680;23.364;2022-11-11T04:22:00;96305.13;;;7.97;96.69
5691;BME280;2870;42.680;23.364;2022-11-11T04:24:27;96308.41;;;8.07;96.98
5691;BME280;2870;42.680;23.364;2022-11-11T04:27:13;96306.31;;;8.19;97.03
5691;BME280;2870;42.680;23.364;2022-11-11T04:29:40;96306.00;;;8.28;96.86
5691;BME280;2870;42.680;23.364;2022-11-11T04:32:09;96313.81;;;8.52;96.83
5691;BME280;2870;42.680;23.364;2022-11-11T04:34:55;96316.41;;;8.86;96.76
5691;BME280;2870;42.680;23.364;2022-11-11T04:37:23;96312.66;;;9.08;96.16
5691;BME280;2870;42.680;23.364;2022-11-11T04:39:51;96309.28;;;9.15;98.41
5691;BME280;2870;42.680;23.364;2022-11-11T04:42:35;96317.50;;;9.37;99.11
5691;BME280;2870;42.680;23.364;2022-11-11T04:45:04;96322.59;;;9.63;98.08
5691;BME280;2870;42.680;23.364;2022-11-11T04:47:54;96313.94;;;9.86;97.30
5691;BME280;2870;42.680;23.364;2022-11-11T04:50:23;96321.00;;;9.92;98.11
5691;BME280;2870;42.680;23.364;2022-11-11T04:52:50;96321.81;;;10.12;100.00
5691;BME280;2870;42.680;23.364;2022-11-11T04:55:17;96307.69;;;10.42;100.00
5691;BME280;2870;42.680;23.364;2022-11-11T04:58:02;96316.56;;;10.46;100.00
5691;BME280;2870;42.680;23.364;2022-11-11T05:00:29;96324.34;;;10.72;100.00
5691;BME280;2870;42.680;23.364;2022-11-11T05:02:57;96326.91;;;10.88;100.00
5691;BME280;2870;42.680;23.364;2022-11-11T05:05:44;96321.97;;;10.95;100.00
5691;BME280;2870;42.680;23.364;2022-11-11T05:08:29;96321.34;;;11.21;100.00
5691;BME280;2870;42.680;23.364;2022-11-11T05:11:13;96317.50;;;11.37;100.00
5691;BME280;2870;42.680;23.364;2022-11-11T05:13:40;96322.66;;;11.33;99.86
5691;BME280;2870;42.680;23.364;2022-11-11T05:16:26;96316.63;;;11.42;99.65
5691;BME280;2870;42.680;23.364;2022-11-11T05:19:13;96325.63;;;11.40;99.03
5691;BME280;2870;42.680;23.364;2022-11-11T05:22:05;96332.94;;;11.44;98.79
5691;BME280;2870;42.680;23.364;2022-11-11T05:24:33;96325.91;;;11.37;98.93
5691;BME280;2870;42.680;23.364;2022-11-11T05:27:17;96336.06;;;11.40;98.54
5691;BME280;2870;42.680;23.364;2022-11-11T05:29:45;96334.69;;;11.47;97.81
5691;BME280;2870;42.680;23.364;2022-11-11T05:32:15;96342.00;;;11.68;97.21
5691;BME280;2870;42.680;23.364;2022-11-11T05:34:44;96356.16;;;11.76;96.41
5691;BME280;2870;42.680;23.364;2022-11-11T05:37:11;96350.84;;;11.73;96.15
5691;BME280;2870;42.680;23.364;2022-11-11T05:39:38;96361.34;;;11.72;96.17
5691;BME280;2870;42.680;23.364;2022-11-11T05:42:06;96359.38;;;11.67;95.84
5691;BME280;2870;42.680;23.364;2022-11-11T05:44:32;96357.50;;;11.56;96.50
5691;BME280;2870;42.680;23.364;2022-11-11T05:46:59;96377.59;;;11.47;96.68
5691;BME280;2870;42.680;23.364;2022-11-11T05:49:27;96363.94;;;11.70;95.93
5691;BME280;2870;42.680;23.364;2022-11-11T05:51:55;96372.13;;;11.68;90.61
5691;BME280;2870;42.680;23.364;2022-11-11T05:54:22;96377.56;;;11.79;90.11
5691;BME280;2870;42.680;23.364;2022-11-11T05:56:49;96384.06;;;11.42;86.98
5691;BME280;2870;42.680;23.364;2022-11-11T05:59:16;96383.50;;;11.11;83.55
5691;BME280;2870;42.680;23.364;2022-11-11T06:01:43;96389.66;;;10.53;84.53
5691;BME280;2870;42.680;23.364;2022-11-11T06:04:10;96387.72;;;9.99;87.47
5691;BME280;2870;42.680;23.364;2022-11-11T06:06:37;96394.66;;;10.17;87.59
5691;BME280;2870;42.680;23.364;2022-11-11T06:09:05;96397.63;;;10.00;89.72
5691;BME280;2870;42.680;23.364;2022-11-11T06:11:32;96407.28;;;10.29;88.82
5691;BME280;2870;42.680;23.364;2022-11-11T06:13:59;96394.38;;;10.45;89.11
5691;BME280;2870;42.680;23.364;2022-11-11T06:16:26;96405.81;;;10.66;89.00
5691;BME280;2870;42.680;23.364;2022-11-11T06:18:53;96404.56;;;10.67;90.03
5691;BME280;2870;42.680;23.364;2022-11-11T06:21:19;96407.34;;;10.86;90.73
5691;BME280;2870;42.680;23.364;2022-11-11T06:23:46;96414.03;;;10.83;91.96
5691;BME280;2870;42.680;23.364;2022-11-11T06:26:14;96417.84;;;10.85;95.75
5691;BME280;2870;42.680;23.364;2022-11-11T06:28:43;96426.75;;;11.22;94.36
5691;BME280;2870;42.680;23.364;2022-11-11T06:31:13;96427.34;;;11.52;93.79
5691;BME280;2870;42.680;23.364;2022-11-11T06:33:40;96418.66;;;11.50;95.77
5691;BME280;2870;42.680;23.364;2022-11-11T06:36:09;96436.16;;;11.75;94.50
5691;BME280;2870;42.680;23.364;2022-11-11T06:38:37;96428.69;;;11.64;94.36
5691;BME280;2870;42.680;23.364;2022-11-11T06:41:05;96440.28;;;11.74;93.59
5691;BME280;2870;42.680;23.364;2022-11-11T06:43:34;96450.19;;;11.94;93.27
5691;BME280;2870;42.680;23.364;2022-11-11T06:46:01;96446.00;;;11.68;93.17
5691;BME280;2870;42.680;23.364;2022-11-11T06:48:28;96448.97;;;11.89;92.69
5691;BME280;2870;42.680;23.364;2022-11-11T06:51:00;96443.25;;;11.82;93.29
5691;BME280;2870;42.680;23.364;2022-11-11T06:53:27;96446.06;;;11.95;93.30
5691;BME280;2870;42.680;23.364;2022-11-11T06:55:54;96441.16;;;12.14;92.27
5691;BME280;2870;42.680;23.364;2022-11-11T06:58:22;96448.25;;;12.02;92.88
5691;BME280;2870;42.680;23.364;2022-11-11T07:00:51;96444.50;;;11.81;93.98
5691;BME280;2870;42.680;23.364;2022-11-11T07:03:19;96440.78;;;11.91;93.97
5691;BME280;2870;42.680;23.364;2022-11-11T07:05:47;96444.69;;;12.02;94.21
5691;BME280;2870;42.680;23.364;2022-11-11T07:08:15;96441.00;;;11.93;94.40
5691;BME280;2870;42.680;23.364;2022-11-11T07:10:44;96444.75;;;11.83;94.69
5691;BME280;2870;42.680;23.364;2022-11-11T07:13:11;96439.19;;;12.09;94.52
5691;BME280;2870;42.680;23.364;2022-11-11T07:15:38;96455.81;;;11.94;93.69
5691;BME280;2870;42.680;23.364;2022-11-11T07:18:07;96451.88;;;11.84;94.34
5691;BME280;2870;42.680;23.364;2022-11-11T07:20:34;96455.25;;;11.82;94.40
5691;BME280;2870;42.680;23.364;2022-11-11T07:23:01;96454.72;;;11.65;95.23
5691;BME280;2870;42.680;23.364;2022-11-11T07:25:28;96427.75;;;11.75;93.64
5691;BME280;2870;42.680;23.364;2022-11-11T07:27:55;96458.50;;;11.67;94.37
5691;BME280;2870;42.680;23.364;2022-11-11T07:30:22;96472.38;;;11.98;94.45
5691;BME280;2870;42.680;23.364;2022-11-11T07:32:50;96466.03;;;12.10;94.43
5691;BME280;2870;42.680;23.364;2022-11-11T07:35:20;96471.13;;;12.25;92.97
5691;BME280;2870;42.680;23.364;2022-11-11T07:37:47;96466.06;;;11.59;94.70
5691;BME280;2870;42.680;23.364;2022-11-11T07:40:16;96469.44;;;11.71;94.66
5691;BME280;2870;42.680;23.364;2022-11-11T07:42:43;96477.56;;;12.07;92.77
5691;BME280;2870;42.680;23.364;2022-11-11T07:45:11;96472.38;;;11.98;92.73
5691;BME280;2870;42.680;23.364;2022-11-11T07:47:41;96477.47;;;11.99;93.35
5691;BME280;2870;42.680;23.364;2022-11-11T07:50:08;96474.38;;;11.84;93.06
5691;BME280;2870;42.680;23.364;2022-11-11T07:52:37;96490.75;;;11.80;92.90
5691;BME280;2870;42.680;23.364;2022-11-11T07:55:04;96477.34;;;11.73;92.77
5691;BME280;2870;42.680;23.364;2022-11-11T07:57:32;96486.53;;;11.92;92.00
5691;BME280;2870;42.680;23.364;2022-11-11T07:59:59;96489.38;;;12.05;92.95
5691;BME280;2870;42.680;23.364;2022-11-11T08:02:26;96492.75;;;12.17;91.63
5691;BME280;2870;42.680;23.364;2022-11-11T08:04:53;96428.97;;;11.61;91.18
5691;BME280;2870;42.680;23.364;2022-11-11T08:07:20;96487.19;;;11.98;90.97
5691;BME280;2870;42.680;23.364;2022-11-11T08:09:48;96490.38;;;12.21;90.19
5691;BME280;2870;42.680;23.364;2022-11-11T08:12:15;96490.19;;;11.87;90.70
5691;BME280;2870;42.680;23.364;2022-11-11T08:14:58;96496.25;;;11.91;90.98
5691;BME280;2870;42.680;23.364;2022-11-11T08:17:25;96492.91;;;11.92;90.69
5691;BME280;2870;42.680;23.364;2022-11-11T08:19:52;96491.06;;;11.44;92.49
5691;BME280;2870;42.680;23.364;2022-11-11T08:22:19;96500.00;;;11.61;92.21
5691;BME280;2870;42.680;23.364;2022-11-11T08:24:45;96497.47;;;11.77;91.62
5691;BME280;2870;42.680;23.364;2022-11-11T08:27:13;96491.56;;;11.61;92.02
5691;BME280;2870;42.680;23.364;2022-11-11T08:29:40;96493.06;;;11.62;92.58
5691;BME280;2870;42.680;23.364;2022-11-11T08:32:07;96495.94;;;11.94;92.19
5691;BME280;2870;42.680;23.364;2022-11-11T08:34:34;96499.31;;;11.74;91.79
5691;BME280;2870;42.680;23.364;2022-11-11T08:37:00;96499.03;;;12.23;90.45
5691;BME280;2870;42.680;23.364;2022-11-11T08:39:27;96507.56;;;12.04;89.74
5691;BME280;2870;42.680;23.364;2022-11-11T08:41:54;96504.03;;;12.30;89.22
5691;BME280;2870;42.680;23.364;2022-11-11T08:44:22;96501.91;;;12.63;87.73
5691;BME280;2870;42.680;23.364;2022-11-11T08:46:50;96505.91;;;12.54;87.20
5691;BME280;2870;42.680;23.364;2022-11-11T08:49:16;96498.63;;;12.32;87.60
5691;BME280;2870;42.680;23.364;2022-11-11T08:51:43;96489.53;;;12.39;87.38
5691;BME280;2870;42.680;23.364;2022-11-11T08:54:10;96502.03;;;12.84;86.65
5691;BME280;2870;42.680;23.364;2022-11-11T08:56:37;96493.03;;;12.85;85.05
5691;BME280;2870;42.680;23.364;2022-11-11T08:59:05;96490.72;;;12.97;85.40
5691;BME280;2870;42.680;23.364;2022-11-11T09:01:34;96505.25;;;13.28;83.77
5691;BME280;2870;42.680;23.364;2022-11-11T09:04:01;96504.78;;;13.10;83.03
5691;BME280;2870;42.680;23.364;2022-11-11T09:06:28;96501.09;;;13.15;83.15
5691;BME280;2870;42.680;23.364;2022-11-11T09:08:55;96500.22;;;13.47;82.09
5691;BME280;2870;42.680;23.364;2022-11-11T09:11:22;96494.19;;;13.16;82.74
5691;BME280;2870;42.680;23.364;2022-11-11T09:13:49;96502.84;;;13.32;81.99
5691;BME280;2870;42.680;23.364;2022-11-11T09:16:15;96507.66;;;13.23;82.57
5691;BME280;2870;42.680;23.364;2022-11-11T09:18:44;96500.81;;;12.92;83.05
5691;BME280;2870;42.680;23.364;2022-11-11T09:21:11;96497.34;;;13.13;82.07
5691;BME280;2870;42.680;23.364;2022-11-11T09:23:38;96492.69;;;13.02;82.67
5691;BME280;2870;42.680;23.364;2022-11-11T09:26:05;96493.91;;;12.93;82.32
5691;BME280;2870;42.680;23.364;2022-11-11T09:28:32;96505.38;;;13.22;81.41
5691;BME280;2870;42.680;23.364;2022-11-11T09:30:59;96499.38;;;13.39;80.20
5691;BME280;2870;42.680;23.364;2022-11-11T09:33:26;96495.66;;;13.44;79.81
5691;BME280;2870;42.680;23.364;2022-11-11T09:35:56;96491.16;;;13.28;80.18
5691;BME280;2870;42.680;23.364;2022-11-11T09:38:23;96495.47;;;13.15;79.07
5691;BME280;2870;42.680;23.364;2022-11-11T09:41:02;96485.81;;;13.37;78.70
5691;BME280;2870;42.680;23.364;2022-11-11T09:43:40;96489.75;;;13.68;78.19
5691;BME280;2870;42.680;23.364;2022-11-11T09:46:20;96486.63;;;13.59;76.92
5691;BME280;2870;42.680;23.364;2022-11-11T09:49:02;96477.41;;;13.58;76.74
5691;BME280;2870;42.680;23.364;2022-11-11T09:51:43;96484.59;;;13.46;77.17
5691;BME280;2870;42.680;23.364;2022-11-11T09:54:16;96471.22;;;13.25;77.51
5691;BME280;2870;42.680;23.364;2022-11-11T09:56:44;96470.53;;;13.33;77.12
5691;BME280;2870;42.680;23.364;2022-11-11T09:59:15;96467.94;;;13.35;77.17
5691;BME280;2870;42.680;23.364;2022-11-11T10:01:47;96469.41;;;13.49;76.67
5691;BME280;2870;42.680;23.364;2022-11-11T10:04:29;96465.13;;;13.90;75.43
5691;BME280;2870;42.680;23.364;2022-11-11T10:07:05;96469.31;;;13.96;74.90
5691;BME280;2870;42.680;23.364;2022-11-11T10:09:39;96463.31;;;14.00;74.41
5691;BME280;2870;42.680;23.364;2022-11-11T10:12:10;96467.78;;;13.95;74.06
5691;BME280;2870;42.680;23.364;2022-11-11T10:14:39;96466.97;;;14.08;74.58
5691;BME280;2870;42.680;23.364;2022-11-11T10:17:14;96463.03;;;14.11;73.66
5691;BME280;2870;42.680;23.364;2022-11-11T10:19:55;96474.50;;;14.34;73.50
5691;BME280;2870;42.680;23.364;2022-11-11T10:22:30;96463.38;;;14.49;73.36
5691;BME280;2870;42.680;23.364;2022-11-11T10:25:13;96471.34;;;14.38;72.43
5691;BME280;2870;42.680;23.364;2022-11-11T10:27:43;96470.56;;;14.29;71.88
5691;BME280;2870;42.680;23.364;2022-11-11T10:30:18;96471.63;;;13.64;73.96
5691;BME280;2870;42.680;23.364;2022-11-11T10:32:51;96458.72;;;13.89;74.59
5691;BME280;2870;42.680;23.364;2022-11-11T10:35:21;96460.63;;;13.94;74.00
5691;BME280;2870;42.680;23.364;2022-11-11T10:37:57;96466.50;;;13.75;75.09
5691;BME280;2870;42.680;23.364;2022-11-11T10:40:27;96458.78;;;13.97;74.29
5691;BME280;2870;42.680;23.364;2022-11-11T10:42:55;96462.22;;;14.24;73.30
5691;BME280;2870;42.680;23.364;2022-11-11T10:45:26;96465.72;;;14.17;73.02
5691;BME280;2870;42.680;23.364;2022-11-11T10:47:59;96456.03;;;13.84;73.86
5691;BME280;2870;42.680;23.364;2022-11-11T10:50:32;96452.25;;;13.81;74.52
5691;BME280;2870;42.680;23.364;2022-11-11T10:53:09;96455.47;;;13.64;74.23
5691;BME280;2870;42.680;23.364;2022-11-11T10:55:42;96452.72;;;13.72;73.25
5691;BME280;2870;42.680;23.364;2022-11-11T10:58:17;96444.88;;;13.99;71.57
5691;BME280;2870;42.680;23.364;2022-11-11T11:00:48;96448.88;;;14.24;71.20
5691;BME280;2870;42.680;23.364;2022-11-11T11:03:21;96451.69;;;14.03;70.97
5691;BME280;2870;42.680;23.364;2022-11-11T11:05:53;96449.63;;;14.25;70.36
5691;BME280;2870;42.680;23.364;2022-11-11T11:08:27;96412.75;;;13.60;71.11
5691;BME280;2870;42.680;23.364;2022-11-11T11:10:57;96444.13;;;13.98;70.33
5691;BME280;2870;42.680;23.364;2022-11-11T11:13:30;96437.25;;;14.07;71.03
5691;BME280;2870;42.680;23.364;2022-11-11T11:16:04;96441.16;;;14.04;69.75
5691;BME280;2870;42.680;23.364;2022-11-11T11:18:32;96435.63;;;14.69;68.20
5691;BME280;2870;42.680;23.364;2022-11-11T11:21:01;96431.19;;;14.81;66.52
5691;BME280;2870;42.680;23.364;2022-11-11T11:23:36;96436.09;;;14.88;65.95
5691;BME280;2870;42.680;23.364;2022-11-11T11:26:04;96425.63;;;15.04;64.99
5691;BME280;2870;42.680;23.364;2022-11-11T11:28:31;96418.72;;;14.76;66.56
5691;BME280;2870;42.680;23.364;2022-11-11T11:31:01;96428.38;;;14.52;65.21
5691;BME280;2870;42.680;23.364;2022-11-11T11:33:49;96415.63;;;14.59;65.02
5691;BME280;2870;42.680;23.364;2022-11-11T11:36:17;96421.59;;;14.92;63.95
5691;BME280;2870;42.680;23.364;2022-11-11T11:38:47;96420.75;;;15.04;63.82
5691;BME280;2870;42.680;23.364;2022-11-11T11:41:15;96422.56;;;14.87;63.79
5691;BME280;2870;42.680;23.364;2022-11-11T11:43:43;96413.59;;;15.11;62.27
5691;BME280;2870;42.680;23.364;2022-11-11T11:46:18;96411.25;;;14.87;62.53
5691;BME280;2870;42.680;23.364;2022-11-11T11:49:03;96411.41;;;14.81;63.71
5691;BME280;2870;42.680;23.364;2022-11-11T11:51:35;96411.75;;;14.77;63.03
5691;BME280;2870;42.680;23.364;2022-11-11T11:54:20;96403.91;;;14.55;63.25
5691;BME280;2870;42.680;23.364;2022-11-11T11:56:53;96416.81;;;14.71;64.30
5691;BME280;2870;42.680;23.364;2022-11-11T11:59:27;96408.19;;;14.77;62.64
5691;BME280;2870;42.680;23.364;2022-11-11T12:01:59;96415.63;;;14.59;63.51
5691;BME280;2870;42.680;23.364;2022-11-11T12:04:55;96410.94;;;14.41;63.86
5691;BME280;2870;42.680;23.364;2022-11-11T12:07:43;96407.16;;;14.10;64.57
5691;BME280;2870;42.680;23.364;2022-11-11T12:10:29;96407.78;;;14.16;65.12
5691;BME280;2870;42.680;23.364;2022-11-11T12:13:02;96412.66;;;14.15;64.76
5691;BME280;2870;42.680;23.364;2022-11-11T12:15:35;96394.72;;;14.33;64.74
5691;BME280;2870;42.680;23.364;2022-11-11T12:18:18;96404.75;;;14.42;64.01
5691;BME280;2870;42.680;23.364;2022-11-11T12:20:51;96396.81;;;14.41;63.59
5691;BME280;2870;42.680;23.364;2022-11-11T12:23:36;96394.00;;;14.41;64.63
5691;BME280;2870;42.680;23.364;2022-11-11T12:26:13;96396.94;;;14.27;63.79
5691;BME280;2870;42.680;23.364;2022-11-11T12:29:01;96383.84;;;14.38;64.14
5691;BME280;2870;42.680;23.364;2022-11-11T12:31:40;96385.19;;;14.44;63.77
5691;BME280;2870;42.680;23.364;2022-11-11T12:34:25;96384.44;;;14.44;63.17
5691;BME280;2870;42.680;23.364;2022-11-11T12:37:02;96384.16;;;14.26;63.28
5691;BME280;2870;42.680;23.364;2022-11-11T12:39:46;96383.75;;;14.51;63.14
5691;BME280;2870;42.680;23.364;2022-11-11T12:42:25;96385.81;;;14.50;62.94
5691;BME280;2870;42.680;23.364;2022-11-11T12:45:04;96382.13;;;14.63;62.73
5691;BME280;2870;42.680;23.364;2022-11-11T12:47:38;96381.75;;;14.59;63.43
5691;BME280;2870;42.680;23.364;2022-11-11T12:50:18;96389.78;;;14.47;62.89
5691;BME280;2870;42.680;23.364;2022-11-11T12:53:10;96388.31;;;14.33;63.67
5691;BME280;2870;42.680;23.364;2022-11-11T12:55:48;96383.19;;;14.24;64.44
5691;BME280;2870;42.680;23.364;2022-11-11T12:58:26;96380.88;;;14.15;65.78
5691;BME280;2870;42.680;23.364;2022-11-11T13:01:09;96381.78;;;14.10;65.71
5691;BME280;2870;42.680;23.364;2022-11-11T13:03:51;96387.22;;;14.08;65.30
5691;BME280;2870;42.680;23.364;2022-11-11T13:06:37;96393.84;;;14.18;65.93
5691;BME280;2870;42.680;23.364;2022-11-11T13:09:22;96389.03;;;13.97;65.21
5691;BME280;2870;42.680;23.364;2022-11-11T13:11:58;96396.28;;;14.14;65.21
5691;BME280;2870;42.680;23.364;2022-11-11T13:14:43;96389.00;;;14.18;65.54
5691;BME280;2870;42.680;23.364;2022-11-11T13:17:13;96389.78;;;14.26;66.19
5691;BME280;2870;42.680;23.364;2022-11-11T13:19:43;96391.53;;;14.29;65.97
5691;BME280;2870;42.680;23.364;2022-11-11T13:22:20;96395.47;;;14.34;66.10
5691;BME280;2870;42.680;23.364;2022-11-11T13:24:48;96392.13;;;14.36;65.02
5691;BME280;2870;42.680;23.364;2022-11-11T13:27:23;96391.41;;;14.14;65.01
5691;BME280;2870;42.680;23.364;2022-11-11T13:30:16;96389.00;;;14.18;65.68
5691;BME280;2870;42.680;23.364;2022-11-11T13:32:47;96389.19;;;14.20;65.69
5691;BME280;2870;42.680;23.364;2022-11-11T13:35:21;96392.00;;;14.20;65.61
5691;BME280;2870;42.680;23.364;2022-11-11T13:37:50;96391.75;;;14.11;66.09
5691;BME280;2870;42.680;23.364;2022-11-11T13:40:31;96406.88;;;14.21;66.02